Time;durP1;ratioP1;P1;durP2;ratioP2;P2;SDS_P1;SDS_P2;PMS_P1;PMS_P2;Temp;Humidity;BMP_temperature;BMP_pressure;BME280_temperature;BME280_humidity;BME280_pressure;Samples;Min_cycle;Max_cycle;Signal;HPM_P1;HPM_P2
2022/06/16 00:01:53;;;;;;;5.97;3.17;;;16.60;95.60;;;;;;4767992;30;20082;-84
2022/06/16 00:10:15;;;;;;;5.10;2.00;;;16.40;95.10;;;;;;4823111;24;20071;-83
2022/06/16 00:12:50;;;;;;;7.03;2.72;;;16.40;95.60;;;;;;4764633;29;20717;-83
2022/06/16 00:15:34;;;;;;;8.40;2.75;;;16.10;94.40;;;;;;4763977;30;20029;-84
2022/06/16 00:20:42;;;;;;;6.78;2.55;;;16.50;93.70;;;;;;4800967;29;20562;-83
2022/06/16 00:23:28;;;;;;;4.60;2.17;;;15.60;94.00;;;;;;4800941;29;20018;-84
2022/06/16 00:26:00;;;;;;;6.00;2.30;;;16.50;94.50;;;;;;4802199;29;20051;-88
2022/06/16 00:28:38;;;;;;;5.65;2.63;;;15.90;95.90;;;;;;4803293;29;20026;-86
2022/06/16 00:31:21;;;;;;;4.60;2.30;;;15.70;94.60;;;;;;4787377;30;20016;-85
2022/06/16 00:34:25;;;;;;;5.53;2.25;;;15.60;95.10;;;;;;4770851;29;20060;-86
2022/06/16 00:39:36;;;;;;;3.03;1.75;;;15.00;96.20;;;;;;4881098;24;20063;-83
2022/06/16 00:42:51;;;;;;;5.20;3.03;;;15.60;97.10;;;;;;4806395;29;20043;-83
2022/06/16 00:51:12;;;;;;;4.90;2.17;;;15.90;97.40;;;;;;4803829;29;20075;-84
2022/06/16 00:53:46;;;;;;;7.28;2.22;;;17.40;97.30;;;;;;4819645;29;20038;-83
2022/06/16 00:57:05;;;;;;;6.88;2.17;;;16.90;93.60;;;;;;4805725;29;20038;-82
2022/06/16 00:59:32;;;;;;;6.07;2.50;;;18.20;95.60;;;;;;4706417;30;20025;-83
2022/06/16 01:02:12;;;;;;;4.65;2.13;;;16.80;93.50;;;;;;4747770;30;20128;-81
2022/06/16 01:05:18;;;;;;;7.75;2.88;;;16.90;92.80;;;;;;4747222;30;20060;-82
2022/06/16 01:11:07;;;;;;;5.50;2.22;;;15.90;94.20;;;;;;4915367;24;20021;-84
2022/06/16 01:26:23;;;;;;;4.03;1.88;;;16.60;95.00;;;;;;866802;27;20358;-83
2022/06/16 01:29:39;;;;;;;12.98;2.75;;;16.50;93.70;;;;;;4767769;30;20052;-84
2022/06/16 01:40:28;;;;;;;5.43;2.10;;;16.90;94.30;;;;;;4849979;24;20074;-83
2022/06/16 01:43:32;;;;;;;6.50;2.45;;;17.70;93.40;;;;;;4804604;29;20058;-85
2022/06/16 01:46:26;;;;;;;4.43;2.10;;;17.70;94.90;;;;;;4804217;29;20036;-83
2022/06/16 01:49:05;;;;;;;3.92;1.83;;;17.30;94.50;;;;;;4805092;29;20534;-85
2022/06/16 01:52:06;;;;;;;5.18;2.42;;;17.90;94.10;;;;;;4804281;29;20148;-80
2022/06/16 01:54:56;;;;;;;4.47;2.10;;;16.30;95.10;;;;;;4883668;24;20086;-84
2022/06/16 01:58:12;;;;;;;5.55;2.15;;;18.20;92.60;;;;;;4802691;30;20070;-83
2022/06/16 02:00:50;;;;;;;5.15;2.13;;;18.30;93.10;;;;;;4804683;29;20039;-84
2022/06/16 02:03:39;;;;;;;7.18;2.88;;;16.40;94.20;;;;;;4901391;24;20043;-81
2022/06/16 02:06:46;;;;;;;5.57;2.17;;;17.00;95.20;;;;;;4803677;30;20058;-83
2022/06/16 02:16:20;;;;;;;6.40;2.75;;;15.00;95.80;;;;;;4805635;29;20122;-85
2022/06/16 02:18:54;;;;;;;4.03;2.05;;;16.10;96.30;;;;;;4805137;29;20376;-85
2022/06/16 02:29:42;;;;;;;5.32;2.15;;;14.60;97.00;;;;;;4819707;24;20063;-82
2022/06/16 02:33:02;;;;;;;5.47;2.42;;;16.20;94.60;;;;;;4803163;29;20043;-85
2022/06/16 02:38:27;;;;;;;4.85;2.25;;;16.50;94.40;;;;;;4821395;24;20070;-85
2022/06/16 02:41:32;;;;;;;5.85;2.33;;;17.20;95.40;;;;;;4803855;29;20020;-81
2022/06/16 02:49:58;;;;;;;6.15;2.33;;;17.30;92.80;;;;;;4801735;29;20063;-83
2022/06/16 02:53:30;;;;;;;5.90;2.33;;;18.50;93.50;;;;;;4802344;29;20016;-81
2022/06/16 03:09:11;;;;;;;6.07;2.33;;;17.90;92.60;;;;;;5045267;24;20075;-81
2022/06/16 03:12:01;;;;;;;5.88;2.08;;;17.90;91.50;;;;;;4804374;29;20024;-82
2022/06/16 03:14:45;;;;;;;4.82;2.17;;;17.30;91.50;;;;;;4804019;29;20053;-83
2022/06/16 03:19:53;;;;;;;5.00;2.40;;;17.90;92.30;;;;;;4807210;24;20089;-81
2022/06/16 03:22:19;;;;;;;5.70;2.75;;;17.70;92.80;;;;;;4802618;29;20024;-82
2022/06/16 03:24:56;;;;;;;5.07;1.88;;;16.70;91.20;;;;;;4802687;29;20052;-81
2022/06/16 03:27:23;;;;;;;6.55;2.55;;;16.30;94.30;;;;;;4802957;29;20050;-81
2022/06/16 03:30:01;;;;;;;5.05;2.22;;;16.00;93.80;;;;;;4803276;29;20031;-80
2022/06/16 03:32:46;;;;;;;5.32;2.20;;;16.10;95.40;;;;;;4804396;29;20015;-86
2022/06/16 03:35:23;;;;;;;5.57;2.33;;;15.40;96.10;;;;;;4803068;29;20024;-79
2022/06/16 03:37:55;;;;;;;4.55;2.13;;;15.70;96.80;;;;;;4802642;29;20491;-84
2022/06/16 03:40:22;;;;;;;5.05;2.60;;;16.60;93.90;;;;;;5030183;24;20046;-83
2022/06/16 03:42:52;;;;;;;6.15;2.28;;;16.60;94.20;;;;;;4800464;29;20038;-82
2022/06/16 03:45:20;;;;;;;5.00;2.40;;;16.60;95.20;;;;;;4842496;24;20630;-83
2022/06/16 03:48:28;;;;;;;5.80;1.92;;;15.50;95.30;;;;;;4800874;30;20107;-83
2022/06/16 03:51:02;;;;;;;4.43;2.20;;;17.40;94.10;;;;;;4800998;29;20039;-83
2022/06/16 03:53:47;;;;;;;6.07;2.67;;;16.80;91.30;;;;;;4801990;29;20050;-83
2022/06/16 03:56:52;;;;;;;6.13;2.67;;;16.60;94.00;;;;;;4756047;30;20050;-83
2022/06/16 03:59:21;;;;;;;5.88;2.38;;;16.40;93.60;;;;;;4751360;30;20066;-83
2022/06/16 04:04:55;;;;;;;4.07;2.13;;;16.20;92.70;;;;;;4766404;30;20055;-80
2022/06/16 04:20:56;;;;;;;5.45;2.42;;;16.20;95.30;;;;;;4833316;24;20067;-87
2022/06/16 04:24:27;;;;;;;5.55;2.30;;;16.60;94.70;;;;;;4803578;29;20088;-82
2022/06/16 04:27:08;;;;;;;5.25;2.33;;;17.60;95.30;;;;;;4752625;30;20040;-85
2022/06/16 04:55:53;;;;;;;13.27;3.97;;;17.90;90.10;;;;;;4680052;24;20055;-85
2022/06/16 04:58:19;;;;;;;9.45;4.60;;;19.40;91.60;;;;;;5022406;24;20244;-81
2022/06/16 05:00:49;;;;;;;8.38;3.58;;;18.10;91.00;;;;;;4781907;30;20044;-81
2022/06/16 05:03:20;;;;;;;8.05;3.65;;;18.10;91.50;;;;;;4793713;30;20015;-82
2022/06/16 05:05:58;;;;;;;8.93;4.07;;;18.60;88.90;;;;;;4793757;30;20102;-86
2022/06/16 05:09:01;;;;;;;9.90;4.80;;;18.70;90.50;;;;;;4792471;30;20092;-94
2022/06/16 05:11:41;;;;;;;8.73;3.53;;;19.80;90.40;;;;;;4794313;30;20038;-90
2022/06/16 05:14:44;;;;;;;7.72;3.58;;;20.00;90.80;;;;;;4789914;30;20039;-91
2022/06/16 05:17:12;;;;;;;8.23;3.55;;;19.20;90.50;;;;;;4791818;29;20432;-94
2022/06/16 05:19:47;;;;;;;9.18;3.75;;;19.50;90.30;;;;;;4789623;30;20046;-89
2022/06/16 05:22:43;;;;;;;11.02;3.90;;;19.30;89.40;;;;;;4762503;30;20059;-95
2022/06/16 05:28:23;;;;;;;6.75;3.33;;;19.80;88.00;;;;;;4759183;30;20050;-96
2022/06/16 05:34:03;;;;;;;7.40;2.72;;;20.50;87.70;;;;;;4712216;30;20089;-93
2022/06/16 05:36:29;;;;;;;8.00;3.22;;;20.40;85.50;;;;;;4725256;30;20092;-90
2022/06/16 05:38:54;;;;;;;6.50;3.08;;;19.90;85.70;;;;;;4714695;30;20053;-96
2022/06/16 05:41:21;;;;;;;9.00;3.08;;;20.10;85.40;;;;;;4730385;30;20387;-84
2022/06/16 05:43:49;;;;;;;7.75;3.40;;;20.20;85.20;;;;;;4724296;30;20033;-83
2022/06/16 05:46:19;;;;;;;8.25;3.70;;;20.50;84.40;;;;;;4721901;30;20041;-85
2022/06/16 05:51:53;;;;;;;7.47;3.00;;;20.30;85.00;;;;;;4714886;30;20056;-83
2022/06/16 05:55:00;;;;;;;8.25;3.35;;;20.40;83.10;;;;;;4715971;30;20037;-84
2022/06/16 06:05:01;;;;;;;9.07;2.75;;;21.00;83.50;;;;;;4767139;30;20066;-90
2022/06/16 06:18:49;;;;;;;7.05;3.15;;;20.90;81.40;;;;;;4760441;30;20155;-93
2022/06/16 06:21:15;;;;;;;5.20;2.55;;;21.00;81.70;;;;;;4788005;29;20052;-85
2022/06/16 06:23:41;;;;;;;7.72;2.80;;;21.00;81.80;;;;;;4802480;29;20042;-87
2022/06/16 06:26:12;;;;;;;6.95;3.15;;;21.00;81.10;;;;;;4789248;30;20028;-95
2022/06/16 06:28:38;;;;;;;6.97;3.00;;;20.70;81.80;;;;;;4797406;29;20044;-83
2022/06/16 06:31:04;;;;;;;5.93;2.75;;;21.00;82.10;;;;;;4788731;29;20031;-83
2022/06/16 06:46:03;;;;;;;7.38;2.60;;;21.10;80.40;;;;;;4957165;28;20054;-83
2022/06/16 06:48:29;;;;;;;6.35;2.80;;;21.60;80.20;;;;;;4969488;28;20027;-83
2022/06/16 06:51:17;;;;;;;8.25;2.83;;;21.40;81.20;;;;;;4956116;28;20093;-83
2022/06/16 06:56:46;;;;;;;7.57;2.83;;;20.90;81.00;;;;;;5571587;23;20059;-81
2022/06/16 07:05:07;;;;;;;8.63;3.70;;;21.10;81.00;;;;;;4975234;23;20078;-88
2022/06/16 07:07:34;;;;;;;5.57;3.25;;;21.10;80.90;;;;;;4968597;23;20156;-82
2022/06/16 07:10:00;;;;;;;7.82;3.58;;;21.10;82.00;;;;;;4949419;29;20024;-84
2022/06/16 07:12:29;;;;;;;6.20;3.03;;;21.20;80.90;;;;;;4950846;29;20202;-83
2022/06/16 07:15:42;;;;;;;;;;;;;;;;;;;;;
2022/06/16 07:18:18;;;;;;;7.07;3.75;;;21.20;79.80;;;;;;4949728;28;20604;-83
2022/06/16 07:20:47;;;;;;;6.90;3.25;;;21.40;80.80;;;;;;4952235;29;20031;-82
2022/06/16 07:23:21;;;;;;;7.28;2.75;;;21.50;80.80;;;;;;4953889;29;20060;-85
2022/06/16 07:25:56;;;;;;;9.38;4.18;;;21.50;79.70;;;;;;4934053;29;20042;-88
2022/06/16 07:28:42;;;;;;;6.82;3.47;;;21.60;79.70;;;;;;4938556;29;20749;-83
2022/06/16 07:31:28;;;;;;;6.53;3.42;;;21.80;78.40;;;;;;4942776;28;20023;-81
2022/06/16 07:33:57;;;;;;;7.15;4.25;;;20.60;77.80;;;;;;4990963;23;20055;-83
2022/06/16 07:36:38;;;;;;;7.93;3.50;;;21.30;80.30;;;;;;5023836;23;20075;-84
2022/06/16 07:39:05;;;;;;;7.72;3.45;;;21.70;81.90;;;;;;4959889;29;20094;-82
2022/06/16 07:44:19;;;;;;;7.43;3.45;;;23.80;80.70;;;;;;4945507;23;20102;-84
2022/06/16 07:49:30;;;;;;;9.02;3.63;;;22.10;76.70;;;;;;2703211;23;20057;-83
2022/06/16 07:54:38;;;;;;;13.57;3.63;;;22.30;76.40;;;;;;5113816;23;20086;-96
2022/06/16 07:57:14;;;;;;;7.80;4.10;;;;;;;;;;4940657;29;20034;-91
2022/06/16 08:03:08;;;;;;;8.27;3.83;;;22.60;74.50;;;;;;5422396;23;20118;-83
2022/06/16 08:05:57;;;;;;;10.85;3.80;;;22.90;74.90;;;;;;4950981;29;20066;-82
2022/06/16 08:08:25;;;;;;;8.45;3.22;;;22.80;74.60;;;;;;5116724;23;20043;-85
2022/06/16 08:13:35;;;;;;;7.00;3.25;;;23.30;73.60;;;;;;5033510;23;20079;-96
2022/06/16 08:16:01;;;;;;;10.25;3.55;;;;;;;;;;4961486;29;20039;-83
2022/06/16 08:18:39;;;;;;;8.23;3.88;;;23.40;72.90;;;;;;4952261;29;20026;-92
2022/06/16 08:24:12;;;;;;;8.00;3.20;;;23.50;73.80;;;;;;4950562;28;20039;-80
2022/06/16 08:47:59;;;;;;;8.32;3.58;;;25.00;75.40;;;;;;4981613;23;20051;-80
2022/06/16 08:53:19;;;;;;;7.93;3.35;;;24.40;74.60;;;;;;5042355;23;20055;-78
2022/06/16 08:56:32;;;;;;;7.90;3.72;;;24.70;75.20;;;;;;4946804;28;20023;-95
2022/06/16 08:59:19;;;;;;;8.35;4.13;;;24.90;72.80;;;;;;4953246;28;20027;-85
2022/06/16 09:02:19;;;;;;;7.72;3.95;;;25.40;71.70;;;;;;4972992;23;20775;-87
2022/06/16 10:01:21;;;;;;;6.53;2.75;;;27.30;58.90;;;;;;5558067;23;20052;-82
2022/06/16 10:18:13;;;;;;;7.85;3.10;;;27.60;57.00;;;;;;5252778;23;20065;-84
2022/06/16 10:21:43;;;;;;;;;;;;;;;;;;;;;
2022/06/16 10:24:46;;;;;;;5.68;2.63;;;28.60;56.20;;;;;;4910269;29;20239;-80
2022/06/16 10:30:44;;;;;;;5.32;2.58;;;28.10;55.00;;;;;;4919725;23;20080;-93
2022/06/16 10:36:23;;;;;;;8.20;2.50;;;28.50;54.00;;;;;;4894180;23;20159;-87
2022/06/16 10:39:43;;;;;;;;;;;;;;;;;;;;;
2022/06/16 10:45:35;;;;;;;7.13;2.97;;;29.90;55.00;;;;;;4910392;23;20048;-96
2022/06/16 10:53:48;;;;;;;7.22;2.83;;;28.70;53.50;;;;;;4917993;23;20541;-81
2022/06/16 10:56:26;;;;;;;5.78;2.95;;;28.70;54.10;;;;;;4889236;29;20120;-85
2022/06/16 10:59:23;;;;;;;6.82;3.22;;;29.20;56.20;;;;;;4885479;29;20092;-88
2022/06/16 11:03:01;;;;;;;8.88;2.67;;;29.20;51.60;;;;;;5051548;23;20177;-83
2022/06/16 11:06:05;;;;;;;10.30;2.75;;;29.40;51.20;;;;;;4858311;23;20086;-95
2022/06/16 11:11:53;;;;;;;5.28;2.40;;;29.90;51.90;;;;;;4893317;23;20076;-94
2022/06/16 11:34:06;;;;;;;6.67;2.20;;;31.70;48.10;;;;;;5931406;23;20024;31
2022/06/16 11:36:39;;;;;;;4.50;2.20;;;32.30;46.20;;;;;;4868324;29;20053;-82
2022/06/16 11:39:39;;;;;;;5.05;2.22;;;34.30;46.70;;;;;;4982940;23;20060;-94
2022/06/16 12:30:18;;;;;;;6.18;2.30;;;35.80;39.30;;;;;;5872138;23;20027;-86
2022/06/16 12:33:24;;;;;;;3.55;1.52;;;37.20;40.10;;;;;;4875459;29;20506;-96
2022/06/16 12:44:05;;;;;;;3.75;1.67;;;38.00;37.00;;;;;;5114125;23;20619;-96
2022/06/16 12:55:51;;;;;;;4.55;1.55;;;38.50;36.80;;;;;;5636316;23;20052;-87
2022/06/16 13:01:49;;;;;;;3.70;1.90;;;37.40;36.70;;;;;;4904385;29;20567;-84
2022/06/16 14:34:28;;;;;;;2.35;1.50;;;39.30;34.60;;;;;;5222354;23;20075;-85
2022/06/16 16:13:36;;;;;;;5.57;2.60;;;39.10;34.40;;;;;;5210615;25;20546;-86
2022/06/16 17:23:31;;;;;;;4.97;2.58;;;29.40;40.20;;;;;;4688572;30;20571;-92
2022/06/16 17:26:22;;;;;;;5.57;2.70;;;32.60;44.10;;;;;;4672351;30;20146;-87
2022/06/16 18:02:37;;;;;;;7.22;3.38;;;27.80;51.60;;;;;;4591053;25;20064;-92
2022/06/16 18:05:20;;;;;;;8.02;3.38;;;27.40;52.60;;;;;;4678672;30;20037;-93
2022/06/16 18:08:16;;;;;;;6.55;3.28;;;27.30;52.70;;;;;;4825993;25;20069;-94
2022/06/16 18:10:53;;;;;;;;;;;;;;;;;;;;;
2022/06/16 18:13:26;;;;;;;4.97;2.70;;;27.00;52.30;;;;;;4692621;30;20052;-94
2022/06/16 18:15:52;;;;;;;;;;;26.80;53.50;;;;;;4714880;25;20070;-93
2022/06/16 18:18:22;;;;;;;8.32;3.50;;;26.70;54.30;;;;;;4623975;31;19913;-94
2022/06/16 18:21:24;;;;;;;7.50;3.05;;;26.50;55.00;;;;;;4623596;30;20551;-94
2022/06/16 18:29:56;;;;;;;5.88;2.97;;;25.80;55.00;;;;;;4803910;25;20100;-93
2022/06/16 18:32:42;;;;;;;;;;;;;;;;;;;;;
2022/06/16 18:41:09;;;;;;;;;;;;;;;;;;;;;
2022/06/16 18:44:02;;;;;;;7.72;3.65;;;23.70;57.50;;;;;;4682392;25;20538;-90
2022/06/16 18:46:59;;;;;;;7.50;3.20;;;24.50;58.40;;;;;;4659266;30;20661;-94
2022/06/16 18:51:55;;;;;;;10.85;4.57;;;24.50;58.30;;;;;;4831289;25;20058;-92
2022/06/16 18:54:21;;;;;;;7.85;3.67;;;;;;;;;;4657088;30;20042;-83
2022/06/16 18:56:59;;;;;;;11.48;4.70;;;24.40;58.00;;;;;;4672272;30;20030;-94
2022/06/16 18:59:24;;;;;;;11.10;4.03;;;24.30;59.20;;;;;;4671653;30;20720;-87
2022/06/16 19:01:50;;;;;;;8.32;3.25;;;24.20;58.90;;;;;;4678246;25;20144;-81
2022/06/16 19:04:23;;;;;;;6.43;3.38;;;24.20;59.20;;;;;;4659420;30;20046;-94
2022/06/16 19:06:50;;;;;;;7.55;3.25;;;27.50;62.70;;;;;;4672122;30;20046;-93
2022/06/16 19:09:17;;;;;;;8.25;3.72;;;23.90;60.40;;;;;;4672239;30;20109;-85
2022/06/16 19:14:30;;;;;;;7.40;3.50;;;23.50;61.70;;;;;;4671512;30;20384;-91
2022/06/16 19:16:57;;;;;;;8.98;3.67;;;23.40;62.40;;;;;;4671377;30;20026;-93
2022/06/16 19:19:23;;;;;;;8.65;2.90;;;23.10;62.90;;;;;;4655580;30;20075;-92
2022/06/16 19:21:50;;;;;;;7.32;3.20;;;23.10;63.30;;;;;;4654868;30;20479;-93
2022/06/16 19:24:39;;;;;;;7.18;2.95;;;22.90;64.10;;;;;;4655278;30;20676;-84
2022/06/16 19:27:27;;;;;;;6.05;2.83;;;22.90;63.80;;;;;;4655931;30;20565;-91
2022/06/16 19:30:14;;;;;;;9.70;3.70;;;23.70;65.20;;;;;;4656603;30;20034;-93
2022/06/16 19:32:43;;;;;;;8.52;3.05;;;22.80;64.40;;;;;;4656056;30;20570;-83
2022/06/16 19:38:52;;;;;;;6.50;3.00;;;22.70;64.50;;;;;;4652947;30;20180;-92
2022/06/16 19:41:56;;;;;;;6.22;3.25;;;20.30;64.90;;;;;;4601977;31;20059;-83
2022/06/16 19:53:23;;;;;;;5.53;2.83;;;22.30;65.60;;;;;;4827208;25;20032;-93
2022/06/16 19:56:10;;;;;;;6.63;3.15;;;;;;;;;;4707105;30;20367;-87
2022/06/16 19:59:04;;;;;;;4.85;2.42;;;22.30;66.00;;;;;;4702656;30;20038;-92
2022/06/16 20:01:48;;;;;;;8.00;3.08;;;22.70;67.30;;;;;;4794930;25;20081;-84
2022/06/16 20:04:15;;;;;;;9.43;3.38;;;;;;;;;;4677205;30;20510;-92
2022/06/16 20:06:47;;;;;;;6.88;2.78;;;22.30;66.50;;;;;;4683087;25;20030;-81
2022/06/16 20:09:31;;;;;;;7.70;2.92;;;22.30;67.50;;;;;;4692601;30;20052;-92
2022/06/16 20:14:36;;;;;;;6.18;2.40;;;22.50;68.10;;;;;;4654956;30;20058;-93
2022/06/16 20:17:14;;;;;;;7.15;3.30;;;22.40;68.70;;;;;;4655612;30;20042;-85
2022/06/16 20:19:46;;;;;;;5.40;2.92;;;22.50;69.30;;;;;;4655680;30;20121;-93
2022/06/16 20:22:37;;;;;;;6.15;3.35;;;22.30;68.10;;;;;;4655332;30;20035;-93
2022/06/16 20:25:15;;;;;;;7.40;3.10;;;22.30;69.90;;;;;;4640643;30;20141;-80
2022/06/16 20:27:53;;;;;;;6.53;2.90;;;22.20;70.40;;;;;;4654430;30;20038;-93
2022/06/16 20:30:38;;;;;;;5.93;2.70;;;22.30;70.90;;;;;;4652409;30;20304;-84
2022/06/16 20:33:06;;;;;;;5.65;2.42;;;22.00;71.10;;;;;;4654391;30;20092;-87
2022/06/16 20:35:44;;;;;;;5.72;2.75;;;22.00;71.40;;;;;;4652936;30;20066;-92
2022/06/16 20:38:15;;;;;;;6.85;3.10;;;21.90;70.00;;;;;;4654668;30;20462;-88
2022/06/16 20:40:44;;;;;;;7.90;3.13;;;21.60;71.20;;;;;;4653789;30;20336;-92
2022/06/16 20:43:12;;;;;;;5.30;2.83;;;21.50;71.90;;;;;;4654609;30;20050;-89
2022/06/16 20:45:41;;;;;;;6.03;2.70;;;21.50;72.00;;;;;;4638716;30;20337;-91
2022/06/16 20:48:13;;;;;;;8.55;3.50;;;21.30;73.00;;;;;;4640502;30;20056;-93
2022/06/16 20:50:39;;;;;;;7.75;3.25;;;21.20;74.10;;;;;;4654276;30;20316;-89
2022/06/16 20:53:12;;;;;;;6.32;2.85;;;21.30;73.20;;;;;;4662099;25;20061;-94
2022/06/16 20:55:38;;;;;;;4.63;2.60;;;20.50;73.30;;;;;;4785123;25;20057;-94
2022/06/16 21:03:13;;;;;;;6.20;2.80;;;21.90;73.60;;;;;;4675430;25;20058;-92
2022/06/16 21:05:39;;;;;;;6.43;3.03;;;22.00;73.80;;;;;;4670643;30;20080;-87
2022/06/16 21:08:35;;;;;;;7.28;3.65;;;22.10;72.20;;;;;;4672172;30;20026;-93
2022/06/16 21:14:01;;;;;;;7.68;3.47;;;21.80;75.40;;;;;;4671048;30;20061;-88
2022/06/16 21:16:39;;;;;;;8.73;3.60;;;21.50;75.80;;;;;;4664132;25;20062;-87
2022/06/16 21:19:35;;;;;;;6.18;2.72;;;21.40;76.50;;;;;;4672006;30;20479;-89
2022/06/16 21:22:16;;;;;;;9.43;3.25;;;22.40;75.70;;;;;;4655424;30;20022;-88
2022/06/16 21:24:45;;;;;;;7.43;3.25;;;21.30;74.00;;;;;;4664510;25;20248;-94
2022/06/16 21:27:13;;;;;;;5.68;2.92;;;21.30;75.20;;;;;;4687318;30;20501;-87
2022/06/16 21:29:42;;;;;;;6.97;3.40;;;21.10;76.80;;;;;;4672378;30;20462;-89
2022/06/16 21:32:25;;;;;;;7.65;3.22;;;21.00;77.70;;;;;;4687570;30;20271;-84
2022/06/16 21:35:15;;;;;;;11.68;3.45;;;20.80;77.70;;;;;;4687699;30;20041;-94
2022/06/16 21:37:41;;;;;;;6.55;3.08;;;;;;;;;;4687343;30;20034;-80
2022/06/16 21:40:12;;;;;;;7.53;4.07;;;20.60;78.30;;;;;;4686400;30;20034;-93
2022/06/16 21:42:38;;;;;;;6.05;2.95;;;19.40;79.50;;;;;;4687373;30;20034;-95
2022/06/16 21:45:04;;;;;;;6.03;3.05;;;20.70;80.80;;;;;;4685811;30;20144;-83
2022/06/16 21:47:38;;;;;;;8.50;3.58;;;20.90;80.30;;;;;;4670835;30;20424;-87
2022/06/16 21:50:07;;;;;;;10.35;3.65;;;21.20;78.80;;;;;;4671999;30;20238;-84
2022/06/16 21:52:35;;;;;;;7.35;2.95;;;21.20;79.90;;;;;;4671307;30;20537;-89
2022/06/16 21:55:03;;;;;;;5.80;2.72;;;21.00;80.80;;;;;;4666775;30;20042;-86
2022/06/16 21:57:32;;;;;;;6.30;2.65;;;20.40;80.30;;;;;;4667430;30;20050;-94
2022/06/16 21:59:58;;;;;;;8.63;3.95;;;;;;;;;;4653113;30;20065;-91
2022/06/16 22:02:36;;;;;;;6.35;3.05;;;21.30;79.50;;;;;;4667504;30;20038;-94
2022/06/16 22:05:21;;;;;;;8.45;3.85;;;21.40;80.60;;;;;;4653509;30;20037;-94
2022/06/16 22:07:50;;;;;;;10.70;4.90;;;21.10;80.10;;;;;;4667304;30;20037;-86
2022/06/16 22:10:35;;;;;;;8.20;3.55;;;21.00;80.90;;;;;;4653261;30;20049;-83
2022/06/16 22:13:04;;;;;;;8.52;3.50;;;20.80;81.60;;;;;;4666982;30;20050;-93
2022/06/16 22:15:49;;;;;;;8.38;3.20;;;20.60;82.40;;;;;;4667978;30;20089;-95
2022/06/16 22:18:25;;;;;;;7.00;3.20;;;20.60;83.60;;;;;;4666867;30;20041;-94
2022/06/16 22:20:52;;;;;;;7.38;3.67;;;21.10;83.00;;;;;;4666192;30;20057;-91
2022/06/16 22:23:21;;;;;;;7.97;3.50;;;21.20;81.90;;;;;;4667079;30;20180;-83
2022/06/16 22:25:49;;;;;;;5.18;2.70;;;21.30;82.00;;;;;;4673504;30;20114;-83
2022/06/16 22:28:32;;;;;;;7.70;3.90;;;21.30;82.40;;;;;;4670994;30;20393;-85
2022/06/16 22:30:58;;;;;;;9.27;4.20;;;21.40;81.30;;;;;;4678332;30;20060;-93
2022/06/16 22:33:27;;;;;;;6.55;3.25;;;21.30;82.30;;;;;;4682857;30;20518;-81
2022/06/16 22:35:54;;;;;;;7.82;3.50;;;21.30;82.40;;;;;;4682218;30;20522;-94
2022/06/16 22:38:20;;;;;;;5.78;2.80;;;21.50;82.00;;;;;;4674589;30;20183;-87
2022/06/16 22:40:52;;;;;;;7.57;4.00;;;21.60;81.30;;;;;;4688593;30;20120;-88
2022/06/16 22:43:47;;;;;;;7.00;3.63;;;21.70;80.90;;;;;;4687713;30;20173;-88
2022/06/16 22:46:22;;;;;;;7.28;4.00;;;21.70;80.90;;;;;;4686909;30;20052;-85
2022/06/16 22:48:51;;;;;;;10.02;4.30;;;21.70;80.70;;;;;;4687607;30;20044;-91
2022/06/16 22:51:21;;;;;;;8.63;3.58;;;21.60;80.70;;;;;;4681655;30;20041;-89
2022/06/16 22:56:18;;;;;;;13.43;3.63;;;21.60;81.40;;;;;;4700095;30;20054;-90
2022/06/16 22:56:37;;;;;;;9.25;3.30;;;21.60;81.40;;;;;;4703206;30;20141;-93
2022/06/16 22:59:04;;;;;;;11.40;3.83;;;21.70;81.60;;;;;;4685419;30;20204;-94
2022/06/16 23:01:30;;;;;;;8.43;3.78;;;21.80;81.00;;;;;;4691568;30;20079;-87
2022/06/16 23:04:08;;;;;;;7.35;3.42;;;21.50;81.60;;;;;;4673248;30;20053;-93
2022/06/16 23:06:37;;;;;;;8.23;3.90;;;21.30;82.90;;;;;;4671526;30;20787;-88
2022/06/16 23:09:20;;;;;;;10.95;4.57;;;21.10;83.00;;;;;;4686711;30;20026;-93
2022/06/16 23:11:58;;;;;;;10.25;4.22;;;20.90;84.20;;;;;;4670594;30;20045;-89
2022/06/16 23:14:30;;;;;;;8.93;4.07;;;20.50;86.50;;;;;;4686596;30;20046;-94
2022/06/16 23:17:17;;;;;;;10.88;4.50;;;20.40;86.90;;;;;;4673889;30;20270;-94
2022/06/16 23:19:44;;;;;;;7.20;3.88;;;20.30;89.00;;;;;;4689630;30;20498;-87
2022/06/16 23:22:23;;;;;;;10.07;4.10;;;20.80;87.10;;;;;;4689250;30;20587;-94
2022/06/16 23:24:49;;;;;;;7.55;3.58;;;20.40;88.30;;;;;;4688545;30;20041;-85
2022/06/16 23:27:22;;;;;;;9.68;4.45;;;20.40;88.90;;;;;;4674194;30;20045;-88
2022/06/16 23:29:49;;;;;;;10.77;4.35;;;20.30;89.60;;;;;;4673479;30;20059;-93
2022/06/16 23:32:15;;;;;;;10.07;3.78;;;20.20;89.90;;;;;;4688981;30;20026;-80
2022/06/16 23:34:43;;;;;;;8.60;4.30;;;20.30;89.70;;;;;;4689012;30;20724;-81
2022/06/16 23:37:13;;;;;;;7.47;3.75;;;20.40;89.20;;;;;;4689272;30;20034;-85
2022/06/16 23:39:40;;;;;;;8.45;3.72;;;20.00;90.20;;;;;;4674032;30;20099;-80
2022/06/16 23:42:06;;;;;;;9.38;4.15;;;20.10;90.70;;;;;;4673905;30;20107;-94
2022/06/16 23:44:32;;;;;;;8.40;3.85;;;20.30;90.20;;;;;;4690277;30;20080;-83
2022/06/16 23:46:59;;;;;;;9.80;3.80;;;20.10;90.60;;;;;;4675942;30;20410;-96
2022/06/16 23:49:32;;;;;;;10.50;4.65;;;19.90;91.30;;;;;;4689936;30;20290;-83
2022/06/16 23:51:58;;;;;;;11.98;4.47;;;20.20;90.90;;;;;;4673723;30;20029;-82
2022/06/16 23:54:35;;;;;;;9.45;5.18;;;20.30;90.90;;;;;;4673692;30;20056;-94
2022/06/16 23:57:04;;;;;;;7.78;4.30;;;20.40;90.70;;;;;;4673714;30;20038;-92
2022/06/16 23:59:30;;;;;;;8.93;4.05;;;20.30;90.80;;;;;;4673374;30;20044;-93
